createdAt,value
2023-05-18T00:04:52.666Z,2.35
2023-05-18T00:09:57.911Z,2.90
2023-05-18T00:15:01.590Z,2.38
2023-05-18T00:20:06.823Z,2.47
2023-05-18T00:25:11.969Z,2.33
2023-05-18T00:30:16.336Z,2.58
2023-05-18T00:35:20.060Z,2.83
2023-05-18T00:40:27.383Z,2.70
2023-05-18T00:45:31.386Z,2.13
2023-05-18T00:50:35.219Z,1.70
2023-05-18T00:55:40.225Z,1.90
2023-05-18T01:00:43.972Z,2.67
2023-05-18T01:05:50.103Z,2.13
2023-05-18T01:10:59.154Z,2.40
2023-05-18T01:16:06.877Z,1.90
2023-05-18T01:21:25.567Z,1.88
2023-05-18T01:26:32.966Z,2.53
2023-05-18T01:31:37.580Z,2.33
2023-05-18T01:36:40.879Z,2.30
2023-05-18T01:41:52.640Z,2.90
2023-05-18T01:47:00.850Z,2.95
2023-05-18T01:52:10.149Z,2.58
2023-05-18T01:57:17.552Z,2.17
2023-05-18T02:02:21.560Z,2.35
2023-05-18T02:07:25.388Z,2.85
2023-05-18T02:12:30.940Z,2.17
2023-05-18T02:17:34.365Z,2.23
2023-05-18T02:22:37.860Z,2.13
2023-05-18T02:27:42.496Z,2.08
2023-05-18T02:32:47.193Z,2.85
2023-05-18T02:37:50.856Z,2.17
2023-05-18T02:42:55.848Z,3.13
2023-05-18T02:48:00.272Z,3.22
2023-05-18T02:53:04.316Z,2.45
2023-05-18T02:58:09.563Z,2.55
2023-05-18T03:03:36.366Z,2.50
2023-05-18T03:08:41.106Z,3.00
2023-05-18T03:13:47.535Z,2.50
2023-05-18T03:18:51.691Z,2.65
2023-05-18T03:23:55.613Z,3.40
2023-05-18T03:29:01.333Z,2.88
2023-05-18T03:34:05.625Z,2.45
2023-05-18T03:39:09.907Z,2.30
2023-05-18T03:44:15.328Z,2.63
2023-05-18T03:49:19.039Z,2.55
2023-05-18T03:54:22.451Z,3.28
2023-05-18T03:59:27.117Z,2.97
2023-05-18T04:04:31.115Z,2.38
2023-05-18T04:09:35.127Z,2.83
2023-05-18T04:14:42.329Z,3.20
2023-05-18T04:19:46.176Z,2.75
2023-05-18T04:24:50.583Z,2.65
2023-05-18T04:29:55.222Z,3.05
2023-05-18T04:35:01.885Z,2.92
2023-05-18T04:40:07.981Z,2.67
2023-05-18T04:45:18.028Z,2.88
2023-05-18T04:50:24.166Z,2.65
2023-05-18T04:55:29.301Z,2.47
2023-05-18T05:00:44.032Z,1.92
2023-05-18T05:10:51.113Z,2.28
2023-05-18T05:15:56.374Z,2.30
2023-05-18T05:21:00.869Z,2.08
2023-05-18T05:26:04.652Z,2.38
2023-05-18T05:31:10.754Z,1.45
2023-05-18T05:36:14.339Z,2.22
2023-05-18T05:41:18.122Z,2.70
2023-05-18T05:46:23.602Z,2.25
2023-05-18T05:56:31.446Z,1.90
2023-05-18T06:01:36.638Z,1.90
2023-05-18T06:06:40.550Z,1.80
2023-05-18T06:11:45.251Z,1.90
2023-05-18T06:16:50.130Z,1.80
2023-05-18T06:21:54.031Z,1.37
2023-05-18T06:26:58.989Z,2.10
2023-05-18T06:32:15.677Z,1.92
2023-05-18T06:37:21.883Z,2.00
2023-05-18T06:42:25.152Z,1.95
2023-05-18T06:47:39.336Z,1.60
2023-05-18T06:52:42.672Z,1.67
2023-05-18T06:57:47.437Z,2.03
2023-05-18T07:02:52.503Z,1.70
2023-05-18T07:07:56.399Z,2.55
2023-05-18T07:13:00.157Z,1.95
2023-05-18T07:18:05.596Z,1.95
2023-05-18T07:23:09.292Z,1.85
2023-05-18T07:28:12.949Z,2.05
2023-05-18T07:33:18.132Z,2.63
2023-05-18T07:38:21.938Z,1.83
2023-05-18T07:43:25.661Z,1.67
2023-05-18T07:48:30.507Z,1.95
2023-05-18T07:53:34.896Z,1.93
2023-05-18T07:58:38.643Z,1.60
2023-05-18T08:03:43.709Z,1.25
2023-05-18T08:08:47.496Z,1.50
2023-05-18T08:13:51.306Z,2.00
2023-05-18T08:18:56.519Z,1.80
2023-05-18T08:24:00.262Z,1.92
2023-05-18T08:29:09.503Z,1.80
2023-05-18T08:34:14.469Z,1.90
2023-05-18T08:39:18.054Z,1.20
2023-05-18T08:44:24.314Z,1.65
2023-05-18T08:49:31.385Z,1.20
2023-05-18T08:54:36.754Z,1.40
2023-05-18T08:59:43.716Z,1.77
2023-05-18T09:04:49.824Z,1.70
2023-05-18T09:09:54.248Z,1.80
2023-05-18T09:14:58.468Z,1.37
2023-05-18T09:20:05.544Z,1.70
2023-05-18T09:25:11.387Z,1.58
2023-05-18T09:30:15.393Z,1.38
2023-05-18T09:35:20.526Z,1.70
2023-05-18T09:40:30.324Z,1.52
2023-05-18T09:45:34.116Z,1.02
2023-05-18T09:50:39.818Z,1.45
2023-05-18T09:55:49.262Z,2.08
2023-05-18T10:00:57.205Z,1.40
2023-05-18T10:06:07.741Z,2.17
2023-05-18T10:11:11.580Z,1.67
2023-05-18T10:16:16.792Z,1.45
2023-05-18T10:26:31.853Z,1.50
2023-05-18T10:31:38.833Z,1.30
2023-05-18T10:36:44.192Z,1.70
2023-05-18T10:41:49.381Z,1.20
2023-05-18T10:52:00.804Z,1.38
2023-05-18T10:57:04.564Z,1.70
2023-05-18T11:02:09.864Z,2.05
2023-05-18T11:07:15.469Z,1.15
2023-05-18T11:12:19.360Z,1.10
2023-05-18T11:17:23.950Z,1.20
2023-05-18T11:22:43.003Z,1.73
2023-05-18T11:27:46.478Z,1.50
2023-05-18T11:32:53.019Z,1.38
2023-05-18T11:38:08.791Z,0.93
2023-05-18T11:43:21.446Z,1.50
2023-05-18T11:48:25.244Z,1.30
2023-05-18T11:53:32.283Z,1.40
2023-05-18T11:58:35.928Z,1.23
2023-05-18T12:03:41.469Z,1.17
2023-05-18T12:08:47.488Z,0.82
2023-05-18T12:13:53.082Z,1.20
2023-05-18T12:18:56.711Z,1.20
2023-05-18T12:24:02.356Z,1.13
2023-05-18T12:29:06.375Z,1.30
2023-05-18T12:34:11.846Z,1.25
2023-05-18T12:39:18.273Z,1.10
2023-05-18T12:44:22.765Z,1.70
2023-05-18T12:49:26.397Z,1.60
2023-05-18T12:54:32.109Z,0.88
2023-05-18T12:59:36.352Z,1.10
2023-05-18T13:04:40.001Z,1.03
2023-05-18T13:09:48.640Z,1.33
2023-05-18T13:14:54.651Z,1.17
2023-05-18T13:19:58.894Z,1.30
2023-05-18T13:25:03.924Z,0.88
2023-05-18T13:35:12.198Z,1.60
2023-05-18T13:40:17.215Z,1.40
2023-05-18T13:45:21.739Z,1.40
2023-05-18T13:50:26.234Z,1.30
2023-05-18T13:55:31.135Z,1.15
2023-05-18T14:05:38.291Z,1.15
2023-05-18T14:10:43.003Z,1.35
2023-05-18T14:15:46.355Z,1.10
2023-05-18T14:20:49.637Z,1.27
2023-05-18T14:25:54.219Z,1.85
2023-05-18T14:30:57.583Z,1.10
2023-05-18T14:36:00.888Z,0.95
2023-05-18T14:41:06.035Z,1.65
2023-05-18T14:46:09.782Z,1.63
2023-05-18T14:51:13.493Z,1.33
2023-05-18T14:56:18.946Z,1.63
2023-05-18T15:01:22.569Z,2.10
2023-05-18T15:06:26.863Z,1.17
2023-05-18T15:11:31.969Z,1.37
2023-05-18T15:21:39.385Z,1.25
2023-05-18T15:26:44.200Z,1.20
2023-05-18T15:31:51.480Z,1.90
2023-05-18T15:36:55.476Z,1.50
2023-05-18T15:42:00.597Z,1.20
2023-05-18T15:52:08.676Z,1.30
2023-05-18T15:57:13.748Z,1.05
2023-05-18T16:02:17.741Z,2.35
2023-05-18T16:07:21.628Z,1.20
2023-05-18T16:12:26.553Z,1.45
2023-05-18T16:17:30.168Z,1.75
2023-05-18T16:22:33.918Z,1.45
2023-05-18T16:27:38.916Z,1.23
2023-05-18T16:32:44.267Z,1.38
2023-05-18T16:37:47.934Z,1.55
2023-05-18T16:42:53.156Z,1.85
2023-05-18T16:47:56.966Z,1.70
2023-05-18T16:53:00.791Z,1.40
2023-05-18T16:58:06.044Z,1.80
2023-05-18T17:08:13.053Z,1.83
2023-05-18T17:13:17.822Z,1.40
2023-05-18T17:18:21.554Z,1.30
2023-05-18T17:23:24.836Z,1.17
2023-05-18T17:28:29.886Z,1.48
2023-05-18T17:38:36.958Z,1.50
2023-05-18T17:43:42.117Z,1.40
2023-05-18T17:48:45.736Z,1.60
2023-05-18T17:53:49.380Z,1.38
2023-05-18T17:58:54.693Z,1.60
2023-05-18T18:03:58.595Z,1.00
2023-05-18T18:09:02.327Z,2.03
2023-05-18T18:14:07.670Z,1.55
2023-05-18T18:24:15.143Z,1.58
2023-05-18T18:29:20.266Z,2.03
2023-05-18T18:34:23.872Z,1.95
2023-05-18T18:39:27.538Z,1.75
2023-05-18T18:44:32.519Z,1.50
2023-05-18T18:49:36.211Z,1.83
2023-05-18T18:54:39.894Z,1.92
2023-05-18T18:59:44.761Z,2.30
2023-05-18T19:04:48.768Z,1.87
2023-05-18T19:09:52.074Z,2.13
2023-05-18T19:14:56.994Z,2.42
2023-05-18T19:20:00.692Z,3.03
2023-05-18T19:25:04.305Z,3.05
2023-05-18T19:30:11.475Z,3.20
2023-05-18T19:35:15.337Z,3.88
2023-05-18T19:40:19.556Z,2.50
2023-05-18T19:45:24.552Z,2.80
2023-05-18T19:50:28.113Z,2.38
2023-05-18T19:55:32.046Z,2.28
2023-05-18T20:00:38.321Z,3.15
2023-05-18T20:05:44.175Z,2.38
2023-05-18T20:15:52.971Z,2.25
2023-05-18T20:20:57.951Z,2.90
2023-05-18T20:26:01.639Z,2.50
2023-05-18T20:31:06.785Z,3.17
2023-05-18T20:36:11.001Z,2.63
2023-05-18T20:41:18.222Z,2.50
2023-05-18T20:46:25.091Z,2.15
2023-05-18T20:51:28.885Z,2.80
2023-05-18T20:56:32.634Z,2.90
2023-05-18T21:01:39.715Z,3.10
2023-05-18T21:06:44.370Z,3.70
2023-05-18T21:11:47.980Z,2.67
2023-05-18T21:16:53.948Z,2.28
2023-05-18T21:21:57.491Z,2.25
2023-05-18T21:27:01.769Z,2.35
2023-05-18T21:32:08.469Z,1.83
2023-05-18T21:37:12.327Z,2.40
2023-05-18T21:42:16.104Z,1.90
2023-05-18T21:47:21.289Z,2.10
2023-05-18T21:52:25.115Z,1.77
2023-05-18T21:57:28.817Z,2.00
2023-05-18T22:02:34.538Z,2.38
2023-05-18T22:07:38.243Z,1.35
2023-05-18T22:12:43.782Z,1.80
2023-05-18T22:22:52.355Z,1.73
2023-05-18T22:27:56.516Z,1.88
2023-05-18T22:33:01.568Z,1.60
2023-05-18T22:38:05.105Z,2.35
2023-05-18T22:43:08.733Z,1.75
2023-05-18T22:48:13.862Z,1.83
2023-05-18T22:53:17.649Z,1.38
2023-05-18T22:58:21.043Z,1.50
2023-05-18T23:03:26.119Z,1.88
2023-05-18T23:08:30.385Z,1.83
2023-05-18T23:13:37.677Z,1.65
2023-05-18T23:18:42.920Z,2.15
2023-05-18T23:23:46.938Z,2.15
2023-05-18T23:28:51.065Z,1.85
2023-05-18T23:33:56.862Z,1.40
2023-05-18T23:39:01.399Z,1.83
2023-05-18T23:44:05.244Z,2.10
2023-05-18T23:49:10.832Z,2.47
2023-05-18T23:54:15.330Z,1.63
2023-05-18T23:59:19.632Z,1.83
